Dost 1 — TCPI — position and weather

sailwx.info

Track history (hours):
 
Tides and Currents Weather Stations Pressure Air Temp Water Temp Dewpoint Dewpoint Depression Visibility Wind Speed Wind Dir Waves Ship Positions

Dost 1

Last reported at 2015-Mar-28 07:29 UTC. Time now 2015-Mar-29 23:49 UTC.
Position N 40°55' E 028°53'.

Length 115 m; draft 7.7 m.

Type: Cargo ship. MMSI: 271000303.

Date/timePositionNaut miles runAvg speedWind from/ knotsBaromVisibWave heightAir tempDewpointWater temp
2015-Mar-28 07:29N 40°55' E 028°53'6 5.6
2015-Mar-28 06:23N 40°59' E 028°59'37 1.9
2015-Mar-27 11:25N 41°27' E 029°30'  
2015-Mar-23 03:12N 44°44' E 037°48'0 0.0
2015-Mar-23 02:14N 44°44' E 037°48'0 0.0
2015-Mar-22 23:17N 44°44' E 037°48'0 0.0
2015-Mar-22 17:09N 44°44' E 037°48'0 0.0
2015-Mar-22 14:13N 44°44' E 037°48'0 0.0
2015-Mar-21 08:32N 44°44' E 037°48'0 0.0
2015-Mar-21 02:32N 44°44' E 037°48'5 5.4
2015-Mar-21 01:31N 44°39' E 037°51'3 3.2
2015-Mar-21 00:28N 44°35' E 037°51'1110.0
2015-Mar-20 23:21N 44°25' E 037°57'11 5.2
2015-Mar-20 21:10N 44°32' E 037°44'1211.1
2015-Mar-20 20:06N 44°36' E 037°28'17 0.4
2015-Mar-19 01:03N 44°24' E 037°45'1 0.5
2015-Mar-18 22:20N 44°25' E 037°46'0 0.4
2015-Mar-18 21:27N 44°25' E 037°47'6 0.7
2015-Mar-18 12:05N 44°26' E 037°56'1 0.4
2015-Mar-18 10:19N 44°26' E 037°57'1 0.5
2015-Mar-18 08:23N 44°26' E 037°58'  
Track history (hours):
 
Tides and Currents Weather Stations Pressure Air Temp Water Temp Dewpoint Dewpoint Depression Visibility Wind Speed Wind Dir Waves Ship Positions

Dost 1

Last reported at 2015-Mar-28 07:29 UTC. Time now 2015-Mar-29 23:49 UTC.
Position N 40°55' E 028°53'.

Length 115 m; draft 7.7 m.

Type: Cargo ship. MMSI: 271000303.

Date/timePositionNaut miles runAvg speedWind from/ knotsBaromVisibWave heightAir tempDewpointWater temp
2015-Mar-28 07:29N 40°55' E 028°53'6 5.6
2015-Mar-28 06:23N 40°59' E 028°59'37 1.9
2015-Mar-27 11:25N 41°27' E 029°30'  
2015-Mar-23 03:12N 44°44' E 037°48'0 0.0
2015-Mar-23 02:14N 44°44' E 037°48'0 0.0
2015-Mar-22 23:17N 44°44' E 037°48'0 0.0
2015-Mar-22 17:09N 44°44' E 037°48'0 0.0
2015-Mar-22 14:13N 44°44' E 037°48'0 0.0
2015-Mar-21 08:32N 44°44' E 037°48'0 0.0
2015-Mar-21 02:32N 44°44' E 037°48'5 5.4
2015-Mar-21 01:31N 44°39' E 037°51'3 3.2
2015-Mar-21 00:28N 44°35' E 037°51'1110.0
2015-Mar-20 23:21N 44°25' E 037°57'11 5.2
2015-Mar-20 21:10N 44°32' E 037°44'1211.1
2015-Mar-20 20:06N 44°36' E 037°28'17 0.4
2015-Mar-19 01:03N 44°24' E 037°45'1 0.5
2015-Mar-18 22:20N 44°25' E 037°46'0 0.4
2015-Mar-18 21:27N 44°25' E 037°47'6 0.7
2015-Mar-18 12:05N 44°26' E 037°56'1 0.4
2015-Mar-18 10:19N 44°26' E 037°57'1 0.5
2015-Mar-18 08:23N 44°26' E 037°58'  

Dump ship's entire track history